Time;durP1;ratioP1;P1;durP2;ratioP2;P2;SDS_P1;SDS_P2;PMS_P1;PMS_P2;Temp;Humidity;BMP_temperature;BMP_pressure;BME280_temperature;BME280_humidity;BME280_pressure;Samples;Min_cycle;Max_cycle;Signal;HPM_P1;HPM_P2
2022/06/11 00:00:56;;;;;;;22.30;19.38;;;;;;;16.99;98.25;101927.81;2038202;29;32350;-64
2022/06/11 00:02:06;;;;;;;23.17;20.58;;;;;;;16.98;98.43;101926.94;2038333;29;20048;-63
2022/06/11 00:03:08;;;;;;;21.83;19.10;;;;;;;16.97;98.51;101922.44;2038308;29;23352;-65
2022/06/11 00:04:26;;;;;;;19.95;17.92;;;;;;;16.96;98.79;101920.69;2038122;29;20036;-64
2022/06/11 00:05:28;;;;;;;18.33;16.23;;;;;;;16.96;98.59;101919.81;2038139;29;25320;-64
2022/06/11 00:06:35;;;;;;;21.88;18.27;;;;;;;16.95;98.68;101913.50;2038273;29;21909;-63
2022/06/11 00:07:38;;;;;;;15.98;14.27;;;;;;;16.96;98.91;101917.09;2038161;29;24194;-64
2022/06/11 00:08:40;;;;;;;19.20;16.00;;;;;;;16.95;99.15;101921.63;2038055;29;26985;-64
2022/06/11 00:09:42;;;;;;;16.48;14.82;;;;;;;16.95;98.91;101923.44;2038464;29;20040;-64
2022/06/11 00:10:45;;;;;;;17.17;14.90;;;;;;;16.95;99.25;101923.44;2038229;29;30223;-64
2022/06/11 00:11:51;;;;;;;22.95;18.55;;;;;;;16.95;99.44;101918.03;2037957;29;24443;-64
2022/06/11 00:12:53;;;;;;;20.45;18.00;;;;;;;16.95;99.40;101926.16;2038797;29;21066;-64
2022/06/11 00:13:55;;;;;;;21.83;19.73;;;;;;;16.95;99.07;101923.44;2038351;29;33974;-64
2022/06/11 00:14:57;;;;;;;24.17;21.65;;;;;;;16.95;99.75;101924.31;2038863;29;20868;-64
2022/06/11 00:16:01;;;;;;;22.83;20.20;;;;;;;16.94;99.35;101919.88;2038773;29;23550;-64
2022/06/11 00:17:06;;;;;;;20.67;17.70;;;;;;;16.95;99.16;101926.16;2037734;29;33104;-65
2022/06/11 00:18:13;;;;;;;21.33;17.23;;;;;;;16.93;99.52;101918.09;2039171;29;20113;-64
2022/06/11 00:19:18;;;;;;;18.52;16.83;;;;;;;16.95;98.96;101918.03;2039134;29;20041;-64
2022/06/11 00:20:23;;;;;;;15.82;14.15;;;;;;;16.93;99.33;101917.22;2038731;29;25203;-64
2022/06/11 00:21:30;;;;;;;19.58;17.50;;;;;;;16.93;99.55;101922.63;2038557;29;20230;-64
2022/06/11 00:22:32;;;;;;;24.58;20.23;;;;;;;16.95;99.84;101915.31;2038982;29;20032;-64
2022/06/11 00:23:37;;;;;;;19.70;17.67;;;;;;;16.95;100.00;101918.03;2039164;29;25413;-64
2022/06/11 00:24:39;;;;;;;20.35;18.40;;;;;;;16.95;99.66;101916.19;2039104;29;20121;-64
2022/06/11 00:25:41;;;;;;;18.90;16.98;;;;;;;16.96;100.00;101917.97;2038434;29;26149;-64
2022/06/11 00:26:46;;;;;;;19.40;17.33;;;;;;;16.95;100.00;101915.31;2037776;28;20617;-64
2022/06/11 00:27:48;;;;;;;19.27;17.40;;;;;;;16.94;100.00;101922.56;2038303;28;20040;-64
2022/06/11 00:28:50;;;;;;;22.02;19.27;;;;;;;16.92;100.00;101910.00;2038085;28;20893;-64
2022/06/11 00:29:52;;;;;;;21.80;19.50;;;;;;;16.90;100.00;101909.19;2037271;29;33453;-65
2022/06/11 00:30:54;;;;;;;20.98;18.75;;;;;;;16.88;100.00;101914.63;2038213;29;20097;-65
2022/06/11 00:31:57;;;;;;;17.92;16.15;;;;;;;16.87;100.00;101903.88;2037719;29;20037;-64
2022/06/11 00:32:59;;;;;;;19.60;17.60;;;;;;;16.85;100.00;101908.44;2038977;29;20079;-63
2022/06/11 00:34:01;;;;;;;21.48;17.92;;;;;;;16.85;99.60;101913.84;2038286;28;29694;-64
2022/06/11 00:35:03;;;;;;;18.85;16.67;;;;;;;16.83;99.87;101921.13;2038242;28;26676;-65
2022/06/11 00:36:08;;;;;;;20.58;17.48;;;;;;;16.83;99.85;101913.00;2038146;29;33732;-64
2022/06/11 00:37:11;;;;;;;19.77;17.77;;;;;;;16.83;99.68;101904.88;2038514;28;28305;-64
2022/06/11 00:38:15;;;;;;;19.75;15.90;;;;;;;16.83;99.85;101905.78;2039002;28;20044;-64
2022/06/11 00:39:20;;;;;;;21.40;17.15;;;;;;;16.84;100.00;101909.41;2029661;29;23502;-64
2022/06/11 00:40:25;;;;;;;19.05;17.10;;;;;;;16.84;99.93;101901.28;2030583;29;27429;-64
2022/06/11 00:41:29;;;;;;;18.92;16.80;;;;;;;16.85;99.63;101909.34;2037888;29;20044;-64
2022/06/11 00:42:33;;;;;;;19.75;16.40;;;;;;;16.84;99.66;101906.69;2038237;29;28812;-64
2022/06/11 00:43:39;;;;;;;20.88;17.50;;;;;;;16.85;99.61;101908.44;2037914;29;26054;-64
2022/06/11 00:44:41;;;;;;;21.10;17.75;;;;;;;16.84;100.00;101912.09;2042912;28;27417;-63
2022/06/11 00:45:59;;;;;;;18.80;16.45;;;;;;;16.85;100.00;101916.56;2075427;28;31705;-64
2022/06/11 00:47:14;;;;;;;25.83;22.75;;;;;;;16.85;99.73;101914.75;2038916;28;20240;-64
2022/06/11 00:48:41;;;;;;;29.33;22.92;;;;;;;16.87;100.00;101907.47;2037664;29;27964;-63
2022/06/11 00:49:57;;;;;;;21.63;18.65;;;;;;;16.88;100.00;101911.94;2037852;29;28414;-63
2022/06/11 00:51:15;;;;;;;23.48;18.63;;;;;;;16.86;100.00;101912.94;2037624;29;37822;-63
2022/06/11 00:52:40;;;;;;;20.35;18.35;;;;;;;16.85;100.00;101909.34;2038168;29;20040;-64
2022/06/11 00:53:57;;;;;;;21.08;18.95;;;;;;;16.83;100.00;101910.28;2038218;29;23491;-64
2022/06/11 00:55:18;;;;;;;21.05;18.90;;;;;;;16.82;100.00;101911.25;2038734;29;26337;-63
2022/06/11 00:56:36;;;;;;;18.35;16.42;;;;;;;16.78;100.00;101914.03;2037766;29;23752;-63
2022/06/11 00:57:51;;;;;;;21.50;19.23;;;;;;;16.78;100.00;101905.94;2037820;29;22615;-64
2022/06/11 00:58:59;;;;;;;19.52;17.45;;;;;;;16.75;100.00;101906.03;2038033;29;29367;-64
2022/06/11 01:00:27;;;;;;;20.67;18.40;;;;;;;16.72;100.00;101903.41;2038999;29;29486;-64
2022/06/11 01:01:32;;;;;;;24.63;19.45;;;;;;;16.67;100.00;101902.72;2039671;29;20171;-64
2022/06/11 01:02:34;;;;;;;19.83;17.77;;;;;;;16.64;100.00;101905.50;2039520;29;21772;-64
2022/06/11 01:03:44;;;;;;;20.80;18.60;;;;;;;16.60;100.00;101903.84;2039897;29;20194;-64
2022/06/11 01:04:54;;;;;;;20.90;17.35;;;;;;;16.56;100.00;101902.16;2039589;29;22945;-63
2022/06/11 01:06:42;;;;;;;23.42;18.13;;;;;;;16.54;100.00;101907.59;2038780;29;31165;-64
2022/06/11 01:08:29;;;;;;;20.73;16.73;;;;;;;16.50;100.00;101903.25;2039551;29;26729;-63
2022/06/11 01:10:01;;;;;;;18.80;15.48;;;;;;;16.42;100.00;101906.19;2071888;28;24637;-64
2022/06/11 01:11:31;;;;;;;18.77;16.77;;;;;;;16.36;100.00;101905.50;2038833;28;20076;-63
2022/06/11 01:13:01;;;;;;;15.30;13.80;;;;;;;16.33;100.00;101895.69;2039480;29;22463;-63
2022/06/11 01:14:34;;;;;;;21.33;18.10;;;;;;;16.28;100.00;101897.66;2039528;29;22500;-63
2022/06/11 01:15:50;;;;;;;24.92;18.13;;;;;;;16.25;100.00;101902.25;2040364;29;20041;-64
2022/06/11 01:17:15;;;;;;;21.88;19.38;;;;;;;16.20;100.00;101895.19;2038709;29;23832;-63
2022/06/11 01:18:46;;;;;;;21.33;18.70;;;;;;;16.14;100.00;101889.97;2039666;29;20828;-64
2022/06/11 01:20:07;;;;;;;21.38;19.08;;;;;;;16.11;100.00;101894.56;2038872;29;24407;-64
2022/06/11 01:21:44;;;;;;;19.88;17.85;;;;;;;16.08;100.00;101889.25;2039064;29;32548;-64
2022/06/11 01:23:14;;;;;;;19.40;17.40;;;;;;;15.99;100.00;101894.03;2038491;29;38390;-63
2022/06/11 01:24:52;;;;;;;;;;;;;;;15.94;100.00;101892.41;2037469;29;20143;-63
2022/06/11 01:26:07;;;;;;;18.77;16.63;;;;;;;15.88;100.00;101885.38;2039646;29;23704;-64
2022/06/11 01:27:37;;;;;;;19.65;17.00;;;;;;;15.81;100.00;101889.19;2039963;29;20103;-64
2022/06/11 01:28:56;;;;;;;26.17;19.67;;;;;;;15.77;100.00;101885.69;2039566;29;27241;-64
2022/06/11 01:30:20;;;;;;;19.27;17.23;;;;;;;15.71;100.00;101880.41;2038736;29;33133;-63
2022/06/11 01:31:46;;;;;;;21.70;17.23;;;;;;;15.68;100.00;101893.13;2038214;29;33007;-63
2022/06/11 01:33:24;;;;;;;18.63;16.70;;;;;;;15.62;100.00;101886.09;2039035;29;26182;-63
2022/06/11 01:34:39;;;;;;;18.90;17.10;;;;;;;15.55;100.00;101890.78;2038673;29;26693;-64
2022/06/11 01:35:44;;;;;;;17.40;15.57;;;;;;;15.50;100.00;101881.03;2039369;29;24153;-64
2022/06/11 01:36:55;;;;;;;20.30;17.08;;;;;;;15.47;100.00;101876.63;2039387;29;20833;-63
2022/06/11 01:38:22;;;;;;;16.88;14.70;;;;;;;15.44;100.00;101885.69;2030765;28;23283;-64
2022/06/11 01:39:57;;;;;;;18.52;16.60;;;;;;;15.37;100.00;101878.69;2034584;29;21323;-63
2022/06/11 01:41:30;;;;;;;22.10;19.15;;;;;;;15.34;100.00;101876.06;2039006;28;28703;-64
2022/06/11 01:42:52;;;;;;;19.58;16.33;;;;;;;15.27;100.00;101872.66;2038864;29;35258;-64
2022/06/11 01:44:02;;;;;;;21.83;19.52;;;;;;;15.23;100.00;101878.19;2038937;29;28133;-64
2022/06/11 01:45:36;;;;;;;19.88;17.20;;;;;;;15.19;100.00;101880.06;2060152;28;20922;-63
2022/06/11 01:46:44;;;;;;;19.70;17.63;;;;;;;15.15;100.00;101872.13;2031184;28;25053;-63
2022/06/11 01:47:48;;;;;;;21.35;19.13;;;;;;;15.12;100.00;101875.78;2031789;29;20957;-63
2022/06/11 01:49:01;;;;;;;17.85;16.00;;;;;;;15.10;100.00;101882.16;2030532;29;33366;-63
2022/06/11 01:50:09;;;;;;;22.20;19.88;;;;;;;15.05;100.00;101874.16;2030839;28;20040;-64
2022/06/11 01:51:33;;;;;;;20.55;18.20;;;;;;;14.99;100.00;101872.53;2031129;29;20037;-64
2022/06/11 01:53:01;;;;;;;23.25;18.25;;;;;;;14.95;100.00;101881.63;2031234;29;25015;-64
2022/06/11 01:55:07;;;;;;;16.60;15.02;;;;;;;14.91;100.00;101882.59;2031930;29;20098;-64
2022/06/11 01:56:33;;;;;;;22.00;19.67;;;;;;;14.86;100.00;101871.09;2022778;29;27993;-63
2022/06/11 01:57:41;;;;;;;22.70;20.48;;;;;;;14.81;100.00;101870.31;2022899;29;23809;-64
2022/06/11 01:59:23;;;;;;;18.92;17.15;;;;;;;14.78;100.00;101876.66;2021920;29;34823;-64
2022/06/11 02:00:31;;;;;;;18.52;16.63;;;;;;;14.74;100.00;101874.97;2022457;29;26584;-64
2022/06/11 02:02:05;;;;;;;21.00;18.80;;;;;;;14.72;100.00;101870.56;2026375;29;34740;-64
2022/06/11 02:03:54;;;;;;;21.77;19.58;;;;;;;14.67;100.00;101868.84;2030446;29;28641;-64
2022/06/11 02:05:06;;;;;;;21.25;18.92;;;;;;;14.62;100.00;101872.56;2031307;29;27960;-65
2022/06/11 02:06:24;;;;;;;20.17;18.05;;;;;;;14.59;100.00;101878.94;2029982;29;29512;-65
2022/06/11 02:07:32;;;;;;;22.42;20.05;;;;;;;14.57;100.00;101874.47;2030733;29;28908;-63
2022/06/11 02:09:03;;;;;;;28.58;25.02;;;;;;;14.60;100.00;101874.44;2030690;29;31871;-65
2022/06/11 02:10:23;;;;;;;25.05;22.63;;;;;;;14.63;100.00;101874.34;2030610;29;21717;-64
2022/06/11 02:12:11;;;;;;;;;;;;;;;14.54;100.00;101874.56;2030453;29;29438;-64
2022/06/11 02:13:47;;;;;;;30.17;26.33;;;;;;;14.55;100.00;101882.56;2055739;28;19919;-64
2022/06/11 02:15:30;;;;;;;22.75;20.05;;;;;;;14.49;100.00;101880.91;2036499;28;38994;-63
2022/06/11 02:16:42;;;;;;;24.10;21.63;;;;;;;14.47;100.00;101879.19;2038791;29;24494;-64
2022/06/11 02:17:51;;;;;;;26.80;23.92;;;;;;;14.44;100.00;101877.44;2038610;29;20068;-65
2022/06/11 02:18:55;;;;;;;27.05;24.23;;;;;;;14.44;100.00;101877.44;2038397;28;28043;-63
2022/06/11 02:20:18;;;;;;;24.98;22.52;;;;;;;14.41;100.00;101877.53;2038208;29;26609;-63
2022/06/11 02:21:28;;;;;;;24.05;21.50;;;;;;;14.40;100.00;101875.75;2038584;29;26118;-64
2022/06/11 02:22:38;;;;;;;32.33;27.63;;;;;;;14.40;100.00;101880.28;2038930;29;20125;-63
2022/06/11 02:23:48;;;;;;;28.10;24.90;;;;;;;14.38;100.00;101872.22;2038935;29;20779;-63
2022/06/11 02:25:20;;;;;;;26.23;22.80;;;;;;;14.33;100.00;101877.72;2039215;28;22854;-63
2022/06/11 02:26:29;;;;;;;27.75;23.75;;;;;;;14.32;100.00;101875.06;2039260;29;20958;-63
2022/06/11 02:27:34;;;;;;;27.98;23.88;;;;;;;14.29;100.00;101875.13;2038532;28;32293;-63
2022/06/11 02:28:40;;;;;;;32.47;28.70;;;;;;;14.29;100.00;101872.44;2038526;29;22789;-64
2022/06/11 02:29:43;;;;;;;26.75;24.02;;;;;;;14.25;100.00;101876.13;2038807;28;20135;-63
2022/06/11 02:30:49;;;;;;;27.40;24.50;;;;;;;14.24;100.00;101879.75;2038851;29;20864;-63
2022/06/11 02:32:05;;;;;;;25.35;21.98;;;;;;;14.19;100.00;101881.66;2037503;29;35509;-64
2022/06/11 02:33:15;;;;;;;24.70;21.77;;;;;;;14.17;100.00;101875.41;2038720;29;31888;-63
2022/06/11 02:34:21;;;;;;;24.35;21.10;;;;;;;14.12;100.00;101873.72;2038656;29;29823;-63
2022/06/11 02:35:39;;;;;;;25.02;22.35;;;;;;;14.10;100.00;101880.03;2039104;29;20901;-64
2022/06/11 02:36:54;;;;;;;25.48;20.35;;;;;;;14.06;100.00;101884.63;2038888;29;25480;-63
2022/06/11 02:37:57;;;;;;;23.85;20.95;;;;;;;14.02;100.00;101885.63;2039323;29;20142;-64
2022/06/11 02:39:02;;;;;;;23.98;21.45;;;;;;;14.00;100.00;101883.84;2039087;28;25348;-63
2022/06/11 02:40:19;;;;;;;27.23;24.45;;;;;;;13.96;100.00;101885.72;2037888;29;27384;-63
2022/06/11 02:41:29;;;;;;;22.80;20.42;;;;;;;13.94;100.00;101882.19;2038705;29;32256;-64
2022/06/11 02:42:34;;;;;;;29.48;25.27;;;;;;;13.91;100.00;101880.47;2038064;28;39552;-63
2022/06/11 02:43:36;;;;;;;24.25;20.88;;;;;;;13.88;100.00;101880.53;2038289;29;34826;-63
2022/06/11 02:44:39;;;;;;;23.45;20.33;;;;;;;13.86;100.00;101886.88;2041167;28;33314;-64
2022/06/11 02:45:42;;;;;;;26.38;23.58;;;;;;;13.84;100.00;101891.41;2077271;28;29245;-63
2022/06/11 02:46:45;;;;;;;27.52;23.50;;;;;;;13.84;100.00;101891.41;2038596;29;20917;-63
2022/06/11 02:47:50;;;;;;;25.20;21.42;;;;;;;13.84;100.00;101891.41;2038825;29;28559;-63
2022/06/11 02:48:53;;;;;;;30.23;26.98;;;;;;;13.86;100.00;101886.88;2038587;29;20079;-63
2022/06/11 02:49:57;;;;;;;30.23;26.85;;;;;;;13.85;100.00;101890.47;2038754;28;20052;-63
2022/06/11 02:50:59;;;;;;;25.08;22.17;;;;;;;13.86;100.00;101893.13;2038063;29;37645;-64
2022/06/11 02:52:07;;;;;;;26.45;22.83;;;;;;;13.81;100.00;101889.66;2038548;29;20139;-63
2022/06/11 02:53:09;;;;;;;26.02;23.25;;;;;;;13.81;100.00;101891.47;2038530;29;28865;-63
2022/06/11 02:54:12;;;;;;;25.98;23.33;;;;;;;13.78;100.00;101886.13;2038355;29;20934;-63
2022/06/11 02:55:18;;;;;;;27.80;22.33;;;;;;;13.78;100.00;101891.50;2037590;29;34410;-64
2022/06/11 02:56:22;;;;;;;24.63;21.45;;;;;;;13.76;100.00;101894.25;2038503;29;20044;-63
2022/06/11 02:57:29;;;;;;;27.10;21.35;;;;;;;13.73;100.00;101889.81;2038597;29;24424;-63
2022/06/11 02:58:31;;;;;;;23.65;20.02;;;;;;;13.70;100.00;101889.88;2038227;29;28520;-63
2022/06/11 02:59:33;;;;;;;23.45;20.95;;;;;;;13.68;100.00;101896.22;2038334;29;20040;-63
2022/06/11 03:00:46;;;;;;;25.50;21.75;;;;;;;13.65;100.00;101889.06;2038730;29;33960;-63
2022/06/11 03:01:48;;;;;;;26.33;21.20;;;;;;;13.62;100.00;101897.25;2038222;29;34242;-63
2022/06/11 03:02:51;;;;;;;25.30;20.95;;;;;;;13.62;100.00;101890.94;2038345;29;30709;-63
2022/06/11 03:03:53;;;;;;;27.92;24.10;;;;;;;13.60;100.00;101895.47;2039277;29;26724;-64
2022/06/11 03:04:57;;;;;;;27.80;22.75;;;;;;;13.60;100.00;101898.16;2038976;28;28507;-63
2022/06/11 03:06:03;;;;;;;24.65;21.77;;;;;;;13.60;100.00;101900.84;2039511;29;20113;-63
2022/06/11 03:07:08;;;;;;;36.08;27.30;;;;;;;13.59;100.00;101908.06;2038711;29;33779;-63
2022/06/11 03:08:10;;;;;;;27.77;23.10;;;;;;;13.60;100.00;101909.81;2038446;28;21126;-63
2022/06/11 03:09:18;;;;;;;27.35;23.25;;;;;;;13.60;100.00;101901.72;2038272;29;25008;-63
2022/06/11 03:10:23;;;;;;;25.55;22.75;;;;;;;13.59;100.00;101902.66;2038489;29;20699;-63
2022/06/11 03:11:27;;;;;;;22.08;19.63;;;;;;;13.58;100.00;101898.19;2038718;29;20950;-64
2022/06/11 03:12:28;;;;;;;22.80;20.40;;;;;;;13.56;100.00;101910.78;2038133;29;33975;-63
2022/06/11 03:13:33;;;;;;;29.98;23.42;;;;;;;13.56;100.00;101916.19;2039230;29;20244;-64
2022/06/11 03:14:35;;;;;;;19.85;17.73;;;;;;;13.55;100.00;101911.72;2038631;29;34925;-63
2022/06/11 03:15:40;;;;;;;20.17;17.67;;;;;;;13.55;100.00;101909.03;2039002;29;26237;-65
2022/06/11 03:16:44;;;;;;;25.35;22.80;;;;;;;13.52;100.00;101915.34;2039219;29;20045;-63
2022/06/11 03:17:51;;;;;;;30.48;24.70;;;;;;;13.52;100.00;101911.78;2038340;29;32211;-64
2022/06/11 03:18:55;;;;;;;25.95;21.98;;;;;;;13.50;100.00;101909.13;2038514;29;20094;-63
2022/06/11 03:19:57;;;;;;;26.02;23.17;;;;;;;13.50;100.00;101903.75;2038134;29;25572;-63
2022/06/11 03:20:59;;;;;;;24.17;21.63;;;;;;;13.53;100.00;101918.91;2039451;29;27825;-64
2022/06/11 03:22:04;;;;;;;26.80;23.45;;;;;;;13.54;100.00;101909.94;2037998;28;22925;-64
2022/06/11 03:23:07;;;;;;;26.02;22.60;;;;;;;13.55;100.00;101909.91;2038337;29;20933;-63
2022/06/11 03:24:09;;;;;;;28.50;24.95;;;;;;;13.60;100.00;101906.25;2038670;29;28729;-63
2022/06/11 03:25:12;;;;;;;28.20;25.05;;;;;;;13.65;100.00;101905.22;2038958;29;25317;-63
2022/06/11 03:26:14;;;;;;;28.42;25.13;;;;;;;13.70;100.00;101907.84;2038629;28;24260;-63
2022/06/11 03:27:17;;;;;;;28.58;25.50;;;;;;;13.75;100.00;101909.50;2039161;29;29142;-63
2022/06/11 03:28:24;;;;;;;24.83;21.83;;;;;;;13.81;100.00;101911.19;2038998;29;20098;-64
2022/06/11 03:29:26;;;;;;;22.73;20.30;;;;;;;13.85;100.00;101912.88;2038294;29;25898;-63
2022/06/11 03:30:28;;;;;;;22.33;19.98;;;;;;;13.88;100.00;101915.53;2038341;29;20036;-63
2022/06/11 03:31:30;;;;;;;23.38;21.00;;;;;;;13.94;100.00;101914.50;2038318;29;24733;-63
2022/06/11 03:32:38;;;;;;;24.92;22.35;;;;;;;14.00;100.00;101918.84;2038302;29;20924;-63
2022/06/11 03:33:40;;;;;;;23.92;21.55;;;;;;;14.05;100.00;101912.47;2038446;29;27962;-64
2022/06/11 03:34:43;;;;;;;24.27;21.92;;;;;;;14.11;100.00;101917.72;2038860;29;23803;-63
2022/06/11 03:35:46;;;;;;;23.05;20.77;;;;;;;14.16;100.00;101914.03;2039092;29;20036;-63
2022/06/11 03:36:52;;;;;;;21.83;19.75;;;;;;;14.22;100.00;101917.47;2038592;29;31022;-63
2022/06/11 03:37:54;;;;;;;21.75;19.48;;;;;;;14.25;100.00;101924.63;2037506;29;38892;-63
2022/06/11 03:38:56;;;;;;;24.70;20.67;;;;;;;14.27;100.00;101918.28;2038643;29;21059;-63
2022/06/11 03:40:00;;;;;;;25.95;22.83;;;;;;;14.31;100.00;101914.56;2038732;29;20044;-63
2022/06/11 03:41:04;;;;;;;26.60;23.13;;;;;;;14.34;100.00;101919.03;2038328;29;23994;-63
2022/06/11 03:42:07;;;;;;;19.65;17.77;;;;;;;14.36;100.00;101919.88;2038144;29;26305;-63
2022/06/11 03:43:09;;;;;;;23.48;21.02;;;;;;;14.39;100.00;101916.22;2038646;29;28287;-63
2022/06/11 03:44:12;;;;;;;18.85;16.95;;;;;;;14.41;100.00;101915.25;2038768;29;24793;-63
2022/06/11 03:45:14;;;;;;;24.55;20.92;;;;;;;14.41;100.00;101912.56;2065842;28;31239;-63
2022/06/11 03:46:17;;;;;;;24.13;20.05;;;;;;;14.44;100.00;101915.16;2053452;28;21103;-65
2022/06/11 03:47:19;;;;;;;22.00;19.83;;;;;;;14.46;100.00;101920.53;2038167;28;23306;-63
2022/06/11 03:48:22;;;;;;;24.52;21.98;;;;;;;14.47;100.00;101925.88;2039050;29;22856;-63
2022/06/11 03:49:25;;;;;;;29.67;24.67;;;;;;;14.50;100.00;101919.56;2039060;29;26159;-63
2022/06/11 03:50:34;;;;;;;22.77;20.38;;;;;;;14.51;100.00;101924.88;2038162;29;24249;-63
2022/06/11 03:51:36;;;;;;;26.30;23.42;;;;;;;14.52;100.00;101923.97;2038462;29;21035;-63
2022/06/11 03:52:38;;;;;;;27.65;24.70;;;;;;;14.56;100.00;101923.91;2037968;29;26811;-63
2022/06/11 03:53:42;;;;;;;24.10;21.70;;;;;;;14.56;100.00;101915.81;2038163;29;23355;-63
2022/06/11 03:54:47;;;;;;;28.48;24.75;;;;;;;14.60;100.00;101917.56;2038095;29;23888;-63
2022/06/11 03:55:49;;;;;;;24.55;22.05;;;;;;;14.59;100.00;101919.38;2038110;29;37903;-63
2022/06/11 03:56:53;;;;;;;25.98;21.98;;;;;;;14.60;100.00;101915.72;2038674;29;32696;-64
2022/06/11 03:57:55;;;;;;;25.13;22.05;;;;;;;14.61;100.00;101913.94;2038843;29;20884;-63
2022/06/11 03:58:58;;;;;;;23.23;20.65;;;;;;;14.63;100.00;101925.56;2038743;29;20805;-64
2022/06/11 04:00:03;;;;;;;26.00;21.27;;;;;;;14.65;100.00;101915.63;2038512;28;25511;-63
2022/06/11 04:01:16;;;;;;;24.65;21.27;;;;;;;14.69;100.00;101920.03;2038988;29;20046;-63
2022/06/11 04:02:21;;;;;;;25.23;21.85;;;;;;;14.75;100.00;101918.97;2038391;29;23909;-63
2022/06/11 04:03:23;;;;;;;23.23;20.25;;;;;;;14.77;100.00;101915.34;2038673;29;26435;-63
2022/06/11 04:04:25;;;;;;;24.10;21.52;;;;;;;14.81;100.00;101925.13;2038571;29;33285;-64
2022/06/11 04:05:27;;;;;;;23.02;20.63;;;;;;;14.85;100.00;101926.81;2038485;29;29218;-63
2022/06/11 04:06:42;;;;;;;30.67;22.63;;;;;;;14.90;100.00;101918.59;2037692;28;20836;-63
2022/06/11 04:07:44;;;;;;;26.42;22.45;;;;;;;14.92;100.00;101926.66;2038822;29;20913;-63
2022/06/11 04:08:46;;;;;;;26.05;18.92;;;;;;;14.98;100.00;101929.19;2038410;29;38347;-63
2022/06/11 04:09:50;;;;;;;21.98;19.67;;;;;;;15.12;100.00;101921.63;2038139;29;28897;-63
2022/06/11 04:10:56;;;;;;;20.15;17.98;;;;;;;15.39;100.00;101928.09;2038457;29;34813;-64
2022/06/11 04:12:00;;;;;;;20.38;18.27;;;;;;;15.72;100.00;101922.69;2038802;29;26732;-63
2022/06/11 04:13:01;;;;;;;21.63;18.42;;;;;;;15.99;100.00;101917.47;2038837;29;23371;-63
2022/06/11 04:14:04;;;;;;;21.45;17.83;;;;;;;16.22;100.00;101925.75;2038138;29;38167;-63
2022/06/11 04:15:09;;;;;;;18.95;16.92;;;;;;;16.61;98.87;101924.53;2039087;29;20102;-63
2022/06/11 04:16:51;;;;;;;17.77;15.88;;;;;;;17.03;96.87;101929.50;2037985;29;24327;-63
2022/06/11 04:17:53;;;;;;;15.65;14.15;;;;;;;17.64;94.74;101921.00;2035975;29;22197;-63
2022/06/11 04:19:00;;;;;;;18.42;13.45;;;;;;;18.10;91.97;101919.28;2038439;29;27968;-63
2022/06/11 04:20:04;;;;;;;14.65;12.75;;;;;;;18.58;89.62;101913.81;2038289;29;20130;-63
2022/06/11 04:21:11;;;;;;;13.50;11.70;;;;;;;18.81;87.01;101913.78;2038340;29;20047;-63
2022/06/11 04:22:14;;;;;;;15.45;11.63;;;;;;;18.95;86.01;101913.19;2037860;29;40550;-63
2022/06/11 04:23:16;;;;;;;12.25;10.88;;;;;;;18.86;85.12;101913.56;2038738;29;21184;-63
2022/06/11 04:24:19;;;;;;;14.07;11.75;;;;;;;18.69;85.25;101919.66;2038598;29;21174;-63
2022/06/11 04:25:21;;;;;;;14.65;11.38;;;;;;;18.58;84.34;101914.69;2038785;29;22102;-63
2022/06/11 04:26:34;;;;;;;14.52;10.85;;;;;;;18.52;84.51;101912.25;2038559;29;20052;-64
2022/06/11 04:27:35;;;;;;;11.82;10.63;;;;;;;18.45;85.79;101908.00;2038177;29;25496;-63
2022/06/11 04:28:39;;;;;;;15.20;13.10;;;;;;;18.26;84.70;101916.84;2037789;28;26215;-64
2022/06/11 04:29:47;;;;;;;14.43;12.18;;;;;;;18.04;85.37;101918.66;2038684;29;20169;-63
2022/06/11 04:30:49;;;;;;;14.65;11.82;;;;;;;18.04;87.11;101916.81;2037896;29;21091;-64
2022/06/11 04:31:54;;;;;;;15.85;13.23;;;;;;;17.77;86.52;101917.84;2037785;28;27098;-64
2022/06/11 04:32:56;;;;;;;15.82;13.98;;;;;;;17.67;87.75;101923.59;2038297;28;20036;-64
2022/06/11 04:34:01;;;;;;;15.40;13.80;;;;;;;17.56;88.30;101921.28;2037312;28;37528;-64
2022/06/11 04:35:04;;;;;;;15.95;14.23;;;;;;;17.47;89.14;101927.03;2038984;29;20044;-64
2022/06/11 04:36:06;;;;;;;14.88;13.43;;;;;;;17.49;89.20;101922.44;2038662;29;32180;-64
2022/06/11 04:37:13;;;;;;;17.40;13.90;;;;;;;17.50;88.85;101921.50;2037458;29;34580;-63
2022/06/11 04:38:16;;;;;;;16.95;14.35;;;;;;;17.60;88.76;101929.28;2038174;29;20044;-64
2022/06/11 04:39:21;;;;;;;18.00;13.93;;;;;;;17.82;88.38;101919.44;2038326;29;27569;-64
2022/06/11 04:40:22;;;;;;;18.95;14.45;;;;;;;18.37;87.08;101926.41;2038835;29;20044;-63
2022/06/11 04:41:26;;;;;;;15.45;13.90;;;;;;;18.88;85.11;101923.41;2037886;28;23965;-63
2022/06/11 04:42:29;;;;;;;15.73;13.43;;;;;;;19.42;83.46;101922.94;2037571;29;34760;-63
2022/06/11 04:43:31;;;;;;;19.17;15.30;;;;;;;19.74;79.50;101924.25;2037741;29;22463;-63
2022/06/11 04:44:33;;;;;;;19.95;15.60;;;;;;;20.32;77.41;101919.72;2037618;29;26979;-64
2022/06/11 04:45:36;;;;;;;17.65;14.00;;;;;;;20.49;75.86;101922.50;2080331;28;20046;-64
2022/06/11 04:46:38;;;;;;;14.20;11.38;;;;;;;20.45;76.19;101918.16;2038143;28;20063;-63
2022/06/11 04:47:40;;;;;;;14.13;10.57;;;;;;;20.30;74.69;101921.66;2037623;29;20817;-64
2022/06/11 04:48:42;;;;;;;12.15;10.55;;;;;;;20.56;75.44;101923.94;2038482;28;20043;-64
2022/06/11 04:49:48;;;;;;;13.93;10.68;;;;;;;20.40;75.01;101922.94;2038077;29;20711;-64
2022/06/11 04:50:50;;;;;;;12.52;10.05;;;;;;;20.45;76.02;101926.31;2037771;29;26759;-64
2022/06/11 04:51:51;;;;;;;11.05;9.88;;;;;;;20.52;75.71;101922.34;2037702;29;25717;-64
2022/06/11 04:52:53;;;;;;;10.73;9.73;;;;;;;20.47;76.27;101920.81;2038364;28;29378;-64
2022/06/11 04:53:55;;;;;;;11.13;9.95;;;;;;;20.65;75.87;101929.94;2037955;29;20157;-64
2022/06/11 04:54:59;;;;;;;15.30;9.95;;;;;;;20.94;74.86;101931.19;2038094;29;21108;-64
2022/06/11 04:56:03;;;;;;;11.88;9.88;;;;;;;20.66;73.79;101926.28;2037951;29;27340;-64
2022/06/11 04:57:05;;;;;;;11.38;10.18;;;;;;;20.58;75.06;101929.31;2038176;29;20170;-64
2022/06/11 04:58:07;;;;;;;11.30;9.18;;;;;;;20.30;73.62;101933.41;2038141;28;24458;-64
2022/06/11 04:59:10;;;;;;;11.73;10.10;;;;;;;19.97;75.79;101930.44;2038208;28;20048;-64
2022/06/11 05:00:18;;;;;;;16.30;10.20;;;;;;;19.89;75.75;101928.06;2037266;29;35998;-64
2022/06/11 05:01:22;;;;;;;12.32;10.57;;;;;;;19.33;77.10;101936.94;2037346;29;39461;-64
2022/06/11 05:02:26;;;;;;;11.98;10.75;;;;;;;19.26;79.38;101933.59;2038004;29;20204;-64
2022/06/11 05:03:28;;;;;;;11.73;10.52;;;;;;;19.06;79.77;101929.03;2038149;29;24649;-64
2022/06/11 05:04:30;;;;;;;12.48;11.15;;;;;;;18.93;80.95;101934.06;2037921;29;32772;-63
2022/06/11 05:05:32;;;;;;;13.30;9.70;;;;;;;18.80;81.58;101924.66;2038364;29;26038;-63
2022/06/11 05:06:39;;;;;;;12.75;10.63;;;;;;;18.54;82.59;101929.31;2038384;28;23355;-63
2022/06/11 05:07:44;;;;;;;15.32;12.02;;;;;;;18.16;83.56;101928.13;2037725;29;30256;-64
2022/06/11 05:08:46;;;;;;;13.77;12.18;;;;;;;18.06;84.66;101935.75;2038108;29;23342;-64
2022/06/11 05:09:48;;;;;;;14.88;12.52;;;;;;;17.89;85.20;101942.69;2037442;29;27984;-64
2022/06/11 05:10:53;;;;;;;14.93;13.38;;;;;;;17.79;85.46;101935.81;2038871;29;20082;-64
2022/06/11 05:11:55;;;;;;;17.10;13.35;;;;;;;17.76;85.79;101935.91;2037742;29;27560;-64
2022/06/11 05:12:57;;;;;;;19.27;13.80;;;;;;;17.78;86.33;101939.44;2037707;29;26072;-64